createdAt,value
2022-10-18T00:00:07.527Z,20.90
2022-10-18T00:02:38.067Z,20.90
2022-10-18T00:05:05.977Z,20.90
2022-10-18T00:07:33.277Z,20.90
2022-10-18T00:10:00.426Z,20.90
2022-10-18T00:12:28.082Z,20.80
2022-10-18T00:14:54.968Z,20.80
2022-10-18T00:17:21.779Z,20.80
2022-10-18T00:19:50.430Z,20.80
2022-10-18T00:22:17.286Z,20.90
2022-10-18T00:24:44.301Z,20.90
2022-10-18T00:27:11.130Z,20.80
2022-10-18T00:29:38.130Z,20.80
2022-10-18T00:32:05.116Z,20.80
2022-10-18T00:34:32.119Z,20.80
2022-10-18T00:36:58.974Z,20.80
2022-10-18T00:39:25.828Z,20.80
2022-10-18T00:41:52.984Z,20.90
2022-10-18T00:44:25.686Z,20.80
2022-10-18T00:46:56.929Z,20.80
2022-10-18T00:49:34.041Z,20.80
2022-10-18T00:52:42.236Z,20.80
2022-10-18T00:55:10.360Z,20.90
2022-10-18T00:57:38.406Z,20.80
2022-10-18T01:00:09.905Z,20.80
2022-10-18T01:02:40.200Z,20.80
2022-10-18T01:05:07.958Z,20.80
2022-10-18T01:07:57.981Z,20.80
2022-10-18T01:10:31.119Z,20.80
2022-10-18T01:13:28.198Z,20.80
2022-10-18T01:16:23.721Z,20.80
2022-10-18T01:19:15.159Z,20.80
2022-10-18T01:21:50.303Z,20.80
2022-10-18T01:24:59.323Z,20.80
2022-10-18T01:27:43.308Z,20.80
2022-10-18T01:30:42.517Z,20.80
2022-10-18T01:33:14.864Z,20.80
2022-10-18T01:35:49.893Z,20.70
2022-10-18T01:38:18.961Z,20.70
2022-10-18T01:40:49.274Z,20.70
2022-10-18T01:43:17.777Z,20.70
2022-10-18T01:45:45.371Z,20.70
2022-10-18T01:48:14.463Z,20.70
2022-10-18T01:50:41.940Z,20.70
2022-10-18T01:53:22.743Z,20.70
2022-10-18T01:56:08.295Z,20.80
2022-10-18T01:58:54.684Z,20.70
2022-10-18T02:01:33.732Z,20.80
2022-10-18T02:04:13.154Z,20.80
2022-10-18T02:06:44.941Z,20.70
2022-10-18T02:09:20.183Z,20.70
2022-10-18T02:11:50.752Z,20.70
2022-10-18T02:14:19.518Z,20.70
2022-10-18T02:16:52.232Z,20.70
2022-10-18T02:19:22.200Z,20.70
2022-10-18T02:21:51.747Z,20.70
2022-10-18T02:24:20.863Z,20.70
2022-10-18T02:26:47.759Z,20.70
2022-10-18T02:29:14.803Z,20.70
2022-10-18T02:31:50.220Z,20.70
2022-10-18T02:34:24.175Z,20.70
2022-10-18T02:36:54.231Z,20.70
2022-10-18T02:39:30.180Z,20.70
2022-10-18T02:41:58.109Z,20.70
2022-10-18T02:44:25.137Z,20.70
2022-10-18T02:46:52.559Z,20.70
2022-10-18T02:49:19.487Z,20.70
2022-10-18T02:51:46.290Z,20.70
2022-10-18T02:54:13.086Z,20.70
2022-10-18T02:56:39.948Z,20.70
2022-10-18T02:59:07.495Z,20.70
2022-10-18T03:01:36.263Z,20.70
2022-10-18T03:04:04.064Z,20.70
2022-10-18T03:06:31.426Z,20.70
2022-10-18T03:08:58.379Z,20.70
2022-10-18T03:11:25.352Z,20.70
2022-10-18T03:13:52.313Z,20.70
2022-10-18T03:16:19.274Z,20.70
2022-10-18T03:18:46.265Z,20.70
2022-10-18T03:21:13.207Z,20.70
2022-10-18T03:23:42.196Z,20.70
2022-10-18T03:26:09.821Z,20.70
2022-10-18T03:28:36.799Z,20.70
2022-10-18T03:31:05.027Z,20.70
2022-10-18T03:33:32.700Z,20.70
2022-10-18T03:35:59.663Z,20.60
2022-10-18T03:38:26.843Z,20.60
2022-10-18T03:40:53.814Z,20.60
2022-10-18T03:43:20.705Z,20.60
2022-10-18T03:45:47.513Z,20.60
2022-10-18T03:48:14.646Z,20.60
2022-10-18T03:50:42.143Z,20.70
2022-10-18T03:53:09.354Z,20.60
2022-10-18T03:55:37.479Z,20.70
2022-10-18T03:58:04.716Z,20.70
2022-10-18T04:00:31.602Z,20.70
2022-10-18T04:02:58.472Z,20.70
2022-10-18T04:05:27.828Z,20.70
2022-10-18T04:07:55.149Z,20.70
2022-10-18T04:10:22.252Z,20.70
2022-10-18T04:12:49.314Z,20.70
2022-10-18T04:15:16.203Z,20.70
2022-10-18T04:17:43.073Z,20.70
2022-10-18T04:20:10.401Z,20.70
2022-10-18T04:22:37.329Z,20.70
2022-10-18T04:25:04.784Z,20.70
2022-10-18T04:27:32.002Z,20.70
2022-10-18T04:29:59.174Z,20.80
2022-10-18T04:32:28.690Z,20.80
2022-10-18T04:34:55.527Z,20.80
2022-10-18T04:37:22.326Z,20.80
2022-10-18T04:39:52.602Z,20.80
2022-10-18T04:42:21.600Z,20.80
2022-10-18T04:44:49.257Z,20.80
2022-10-18T04:47:17.310Z,20.80
2022-10-18T04:49:44.524Z,20.90
2022-10-18T04:52:11.800Z,20.80
2022-10-18T04:54:38.707Z,20.90
2022-10-18T04:57:05.563Z,20.90
2022-10-18T04:59:32.407Z,20.90
2022-10-18T05:01:59.489Z,20.80
2022-10-18T05:04:26.417Z,20.80
2022-10-18T05:06:53.286Z,20.80
2022-10-18T05:09:22.315Z,20.80
2022-10-18T05:11:49.183Z,20.80
2022-10-18T05:14:16.287Z,20.80
2022-10-18T05:16:43.248Z,20.80
2022-10-18T05:19:10.207Z,20.70
2022-10-18T05:21:37.664Z,20.70
2022-10-18T05:24:04.783Z,20.80
2022-10-18T05:26:31.769Z,20.70
2022-10-18T05:28:58.713Z,20.70
2022-10-18T05:31:25.742Z,20.70
2022-10-18T05:33:52.634Z,20.70
2022-10-18T05:36:19.564Z,20.70
2022-10-18T05:38:47.931Z,20.70
2022-10-18T05:41:14.955Z,20.70
2022-10-18T05:43:41.903Z,20.70
2022-10-18T05:46:14.664Z,20.70
2022-10-18T05:48:43.553Z,20.70
2022-10-18T05:51:10.619Z,20.70
2022-10-18T05:53:38.202Z,20.60
2022-10-18T05:56:06.207Z,20.60
2022-10-18T05:58:33.324Z,20.60
2022-10-18T06:01:01.387Z,20.60
2022-10-18T06:03:28.448Z,20.70
2022-10-18T06:06:09.707Z,20.70
2022-10-18T06:08:38.026Z,20.60
2022-10-18T06:11:08.469Z,20.60
2022-10-18T06:13:35.391Z,20.70
2022-10-18T06:16:02.203Z,20.60
2022-10-18T06:18:29.949Z,20.60
2022-10-18T06:20:59.164Z,20.60
2022-10-18T06:23:29.821Z,20.60
2022-10-18T06:26:06.210Z,20.70
2022-10-18T06:28:35.866Z,20.60
2022-10-18T06:31:03.501Z,20.60
2022-10-18T06:33:35.065Z,20.60
2022-10-18T06:36:04.854Z,20.60
2022-10-18T06:38:32.112Z,20.70
2022-10-18T06:40:59.980Z,20.60
2022-10-18T06:43:27.360Z,20.70
2022-10-18T06:45:55.004Z,20.70
2022-10-18T06:48:22.867Z,20.70
2022-10-18T06:50:57.249Z,20.70
2022-10-18T06:53:29.401Z,20.80
2022-10-18T06:56:04.504Z,20.70
2022-10-18T06:58:32.043Z,20.70
2022-10-18T07:00:59.324Z,20.70
2022-10-18T07:03:26.361Z,20.70
2022-10-18T07:05:53.287Z,20.70
2022-10-18T07:08:20.111Z,20.70
2022-10-18T07:10:53.574Z,20.70
2022-10-18T07:13:31.946Z,20.70
2022-10-18T07:16:06.976Z,20.70
2022-10-18T07:18:35.768Z,20.70
2022-10-18T07:21:05.239Z,20.70
2022-10-18T07:23:34.016Z,20.60
2022-10-18T07:26:01.980Z,20.70
2022-10-18T07:28:29.541Z,20.60
2022-10-18T07:30:56.683Z,20.60
2022-10-18T07:33:24.751Z,20.70
2022-10-18T07:35:51.609Z,20.60
2022-10-18T07:38:18.555Z,20.70
2022-10-18T07:40:45.359Z,20.60
2022-10-18T07:43:12.448Z,20.60
2022-10-18T07:45:39.333Z,20.60
2022-10-18T07:48:06.405Z,20.60
2022-10-18T07:50:33.195Z,20.60
2022-10-18T07:53:00.038Z,20.60
2022-10-18T07:55:26.873Z,20.60
2022-10-18T07:57:53.851Z,20.60
2022-10-18T08:00:20.795Z,20.60
2022-10-18T08:02:47.653Z,20.70
2022-10-18T08:05:14.509Z,20.70
2022-10-18T08:07:41.345Z,20.80
2022-10-18T08:10:08.519Z,20.70
2022-10-18T08:12:35.368Z,20.80
2022-10-18T08:15:02.176Z,20.80
2022-10-18T08:17:29.053Z,20.90
2022-10-18T08:20:11.407Z,20.90
2022-10-18T08:22:42.898Z,20.90
2022-10-18T08:25:09.963Z,21.00
2022-10-18T08:27:36.859Z,21.00
2022-10-18T08:30:03.942Z,21.00
2022-10-18T08:32:31.063Z,21.00
2022-10-18T08:34:58.120Z,21.10
2022-10-18T08:37:25.115Z,21.10
2022-10-18T08:39:51.938Z,21.10
2022-10-18T08:42:21.521Z,21.10
2022-10-18T08:44:50.748Z,21.20
2022-10-18T08:47:41.474Z,21.20
2022-10-18T08:50:17.927Z,21.20
2022-10-18T08:53:12.355Z,21.20
2022-10-18T08:55:46.930Z,21.20
2022-10-18T08:58:22.178Z,21.20
2022-10-18T09:01:21.023Z,21.20
2022-10-18T09:04:07.710Z,21.30
2022-10-18T09:06:43.766Z,21.30
2022-10-18T09:09:33.075Z,21.30
2022-10-18T09:12:02.015Z,21.30
2022-10-18T09:14:34.977Z,21.30
2022-10-18T09:17:28.266Z,21.30
2022-10-18T09:20:35.351Z,21.30
2022-10-18T09:23:16.306Z,21.30
2022-10-18T09:25:49.033Z,21.30
2022-10-18T09:28:24.749Z,21.30
2022-10-18T09:30:59.731Z,21.40
2022-10-18T09:33:40.501Z,21.40
2022-10-18T09:36:14.985Z,21.30
2022-10-18T09:39:04.319Z,21.30
2022-10-18T09:41:49.409Z,21.40
2022-10-18T09:44:22.194Z,21.40
2022-10-18T09:47:21.308Z,21.40
2022-10-18T09:49:55.161Z,21.40
2022-10-18T09:52:46.518Z,21.30
2022-10-18T09:55:20.118Z,21.40
2022-10-18T09:57:52.344Z,21.40
2022-10-18T10:00:26.360Z,21.40
2022-10-18T10:02:55.083Z,21.40
2022-10-18T10:05:22.126Z,21.30
2022-10-18T10:07:49.232Z,21.40
2022-10-18T10:10:25.228Z,21.30
2022-10-18T10:13:16.145Z,21.40
2022-10-18T10:15:53.235Z,21.40
2022-10-18T10:18:22.799Z,21.40
2022-10-18T10:20:55.115Z,21.40
2022-10-18T10:23:26.986Z,21.40
2022-10-18T10:26:03.307Z,21.40
2022-10-18T10:28:34.896Z,21.40
2022-10-18T10:31:28.566Z,21.40
2022-10-18T10:34:13.433Z,21.40
2022-10-18T10:36:51.300Z,21.40
2022-10-18T10:39:20.331Z,21.40
2022-10-18T10:42:00.907Z,21.40
2022-10-18T10:44:31.053Z,21.40
2022-10-18T10:46:58.516Z,21.40
2022-10-18T10:49:44.715Z,21.40
2022-10-18T10:52:37.260Z,21.40
2022-10-18T10:55:23.523Z,21.40
2022-10-18T10:57:55.559Z,21.40
2022-10-18T11:00:42.247Z,21.30
2022-10-18T11:03:34.030Z,21.40
2022-10-18T11:06:01.968Z,21.40
2022-10-18T11:08:38.529Z,21.40
2022-10-18T11:11:20.675Z,21.40
2022-10-18T11:14:07.375Z,21.40
2022-10-18T11:17:13.776Z,21.40
2022-10-18T11:20:02.684Z,21.40
2022-10-18T11:22:36.229Z,21.40
2022-10-18T11:25:05.460Z,21.40
2022-10-18T11:27:49.017Z,21.40
2022-10-18T11:30:43.522Z,21.50
2022-10-18T11:33:56.245Z,21.50
2022-10-18T11:36:36.586Z,21.40
2022-10-18T11:39:27.292Z,21.40
2022-10-18T11:41:59.617Z,21.40
2022-10-18T11:44:40.186Z,21.40
2022-10-18T11:47:25.715Z,21.40
2022-10-18T11:50:06.828Z,21.50
2022-10-18T11:52:42.159Z,21.40
2022-10-18T11:55:32.766Z,21.40
2022-10-18T11:58:15.746Z,21.40
2022-10-18T12:00:45.389Z,21.40
2022-10-18T12:03:49.983Z,21.40
2022-10-18T12:06:21.185Z,21.40
2022-10-18T12:09:02.069Z,21.40
2022-10-18T12:11:38.583Z,21.50
2022-10-18T12:14:22.665Z,21.50
2022-10-18T12:16:53.628Z,21.50
2022-10-18T12:19:30.007Z,21.50
2022-10-18T12:21:58.513Z,21.50
2022-10-18T12:24:28.742Z,21.40
2022-10-18T12:27:00.586Z,21.50
2022-10-18T12:29:45.316Z,21.50
2022-10-18T12:32:22.999Z,21.50
2022-10-18T12:34:54.563Z,21.50
2022-10-18T12:37:21.423Z,21.50
2022-10-18T12:40:14.674Z,21.50
2022-10-18T12:42:46.543Z,21.60
2022-10-18T12:45:13.478Z,21.50
2022-10-18T12:47:40.822Z,21.50
2022-10-18T12:50:23.355Z,21.60
2022-10-18T12:53:06.976Z,21.60
2022-10-18T12:55:39.948Z,21.50
2022-10-18T12:58:20.037Z,21.50
2022-10-18T13:00:47.850Z,21.50
2022-10-18T13:03:18.013Z,21.50
2022-10-18T13:05:53.439Z,21.50
2022-10-18T13:08:30.355Z,21.50
2022-10-18T13:11:12.228Z,21.50
2022-10-18T13:14:16.455Z,21.60
2022-10-18T13:17:13.716Z,21.50
2022-10-18T13:20:25.492Z,21.50
2022-10-18T13:23:27.710Z,21.50
2022-10-18T13:26:09.356Z,21.40
2022-10-18T13:29:02.940Z,21.50
2022-10-18T13:31:56.425Z,21.50
2022-10-18T13:34:28.154Z,21.50
2022-10-18T13:37:04.375Z,21.50
2022-10-18T13:39:32.499Z,21.50
2022-10-18T13:42:00.678Z,21.50
2022-10-18T13:44:31.855Z,21.50
2022-10-18T13:46:58.854Z,21.50
2022-10-18T13:49:43.791Z,21.50
2022-10-18T13:52:41.348Z,21.50
2022-10-18T13:55:52.021Z,21.50
2022-10-18T13:58:30.679Z,21.50
2022-10-18T14:01:31.758Z,21.50
2022-10-18T14:04:31.744Z,21.50
2022-10-18T14:07:02.483Z,21.50
2022-10-18T14:09:46.580Z,21.40
2022-10-18T14:12:41.169Z,21.50
2022-10-18T14:15:23.240Z,21.50
2022-10-18T14:17:56.188Z,21.50
2022-10-18T14:20:28.647Z,21.50
2022-10-18T14:23:16.917Z,21.50
2022-10-18T14:25:44.717Z,21.60
2022-10-18T14:28:27.350Z,21.50
2022-10-18T14:31:10.111Z,21.50
2022-10-18T14:33:48.030Z,21.50
2022-10-18T14:36:19.691Z,21.50
2022-10-18T14:38:56.570Z,21.50
2022-10-18T14:41:25.109Z,21.60
2022-10-18T14:43:54.095Z,21.50
2022-10-18T14:46:28.938Z,21.60
2022-10-18T14:49:00.600Z,21.50
2022-10-18T14:51:32.744Z,21.60
2022-10-18T14:54:00.248Z,21.60
2022-10-18T14:56:30.543Z,21.60
2022-10-18T14:59:02.147Z,21.60
2022-10-18T15:01:33.755Z,21.60
2022-10-18T15:04:06.999Z,21.60
2022-10-18T15:06:33.940Z,21.60
2022-10-18T15:09:06.906Z,21.60
2022-10-18T15:11:34.011Z,21.60
2022-10-18T15:14:08.736Z,21.50
2022-10-18T15:16:38.645Z,21.50
2022-10-18T15:19:07.635Z,21.50
2022-10-18T15:21:36.156Z,21.50
2022-10-18T15:24:29.233Z,21.60
2022-10-18T15:27:02.751Z,21.60
2022-10-18T15:29:33.683Z,21.60
2022-10-18T15:32:08.673Z,21.60
2022-10-18T15:34:35.665Z,21.60
2022-10-18T15:37:27.424Z,21.60
2022-10-18T15:40:21.912Z,21.70
2022-10-18T15:42:53.487Z,21.60
2022-10-18T15:45:31.654Z,21.60
2022-10-18T15:48:09.242Z,21.60
2022-10-18T15:50:44.692Z,21.60
2022-10-18T15:53:33.110Z,21.60
2022-10-18T15:56:51.018Z,21.70
2022-10-18T15:59:28.091Z,21.70
2022-10-18T16:01:56.122Z,21.60
2022-10-18T16:04:26.203Z,21.60
2022-10-18T16:06:54.255Z,21.60
2022-10-18T16:09:22.531Z,21.60
2022-10-18T16:11:55.768Z,21.60
2022-10-18T16:14:25.861Z,21.60
2022-10-18T16:17:01.598Z,21.60
2022-10-18T16:19:28.906Z,21.60
2022-10-18T16:21:55.879Z,21.60
2022-10-18T16:24:23.535Z,21.50
2022-10-18T16:26:50.668Z,21.50
2022-10-18T16:29:28.811Z,21.50
2022-10-18T16:31:58.261Z,21.50
2022-10-18T16:34:29.532Z,21.50
2022-10-18T16:36:56.437Z,21.50
2022-10-18T16:39:24.284Z,21.50
2022-10-18T16:41:51.707Z,21.50
2022-10-18T16:44:19.188Z,21.50
2022-10-18T16:46:49.863Z,21.40
2022-10-18T16:49:23.887Z,21.40
2022-10-18T16:51:54.841Z,21.40
2022-10-18T16:54:21.899Z,21.40
2022-10-18T16:56:50.122Z,21.30
2022-10-18T16:59:28.967Z,21.30
2022-10-18T17:01:55.929Z,21.30
2022-10-18T17:04:22.877Z,21.20
2022-10-18T17:06:50.159Z,21.30
2022-10-18T17:09:17.014Z,21.20
2022-10-18T17:11:43.972Z,21.20
2022-10-18T17:14:10.894Z,21.20
2022-10-18T17:16:38.883Z,21.10
2022-10-18T17:19:07.994Z,21.10
2022-10-18T17:21:35.152Z,21.10
2022-10-18T17:24:03.285Z,21.10
2022-10-18T17:26:30.748Z,21.10
2022-10-18T17:29:04.288Z,21.10
2022-10-18T17:31:32.483Z,21.00
2022-10-18T17:34:01.634Z,21.00
2022-10-18T17:36:32.466Z,21.00
2022-10-18T17:38:59.565Z,21.00
2022-10-18T17:41:26.482Z,21.00
2022-10-18T17:43:53.470Z,20.90
2022-10-18T17:46:20.328Z,20.90
2022-10-18T17:48:47.366Z,20.80
2022-10-18T17:51:17.052Z,20.90
2022-10-18T17:53:44.291Z,20.80
2022-10-18T17:56:12.746Z,20.90
2022-10-18T17:58:40.395Z,20.80
2022-10-18T18:01:20.532Z,20.80
2022-10-18T18:03:48.088Z,20.80
2022-10-18T18:06:23.550Z,20.70
2022-10-18T18:08:50.555Z,20.80
2022-10-18T18:11:17.847Z,20.70
2022-10-18T18:13:45.186Z,20.70
2022-10-18T18:16:18.012Z,20.70
2022-10-18T18:18:48.510Z,20.70
2022-10-18T18:21:15.409Z,20.60
2022-10-18T18:23:42.439Z,20.60
2022-10-18T18:26:09.392Z,20.60
2022-10-18T18:28:36.743Z,20.60
2022-10-18T18:31:15.477Z,20.60
2022-10-18T18:33:43.299Z,20.60
2022-10-18T18:36:10.757Z,20.60
2022-10-18T18:38:42.385Z,20.60
2022-10-18T18:41:14.987Z,20.50
2022-10-18T18:43:49.917Z,20.60
2022-10-18T18:46:16.924Z,20.50
2022-10-18T18:48:43.730Z,20.50
2022-10-18T18:51:16.552Z,20.50
2022-10-18T18:53:45.297Z,20.50
2022-10-18T18:56:15.878Z,20.50
2022-10-18T18:58:44.241Z,20.50
2022-10-18T19:01:14.895Z,20.40
2022-10-18T19:03:42.911Z,20.40
2022-10-18T19:06:13.194Z,20.40
2022-10-18T19:08:40.552Z,20.40
2022-10-18T19:11:09.257Z,20.40
2022-10-18T19:13:36.714Z,20.40
2022-10-18T19:16:23.561Z,20.40
2022-10-18T19:19:08.436Z,20.40
2022-10-18T19:21:39.939Z,20.30
2022-10-18T19:24:07.641Z,20.10
2022-10-18T19:26:39.132Z,20.00
2022-10-18T19:29:18.167Z,19.90
2022-10-18T19:31:45.536Z,19.80
2022-10-18T19:34:14.059Z,19.80
2022-10-18T19:36:43.049Z,19.70
2022-10-18T19:39:20.707Z,19.80
2022-10-18T19:41:51.000Z,19.70
2022-10-18T19:44:19.320Z,19.70
2022-10-18T19:46:46.598Z,19.60
2022-10-18T19:49:13.628Z,19.50
2022-10-18T19:51:40.992Z,19.40
2022-10-18T19:54:08.142Z,19.40
2022-10-18T19:56:35.091Z,19.30
2022-10-18T19:59:01.971Z,19.30
2022-10-18T20:01:29.512Z,19.30
2022-10-18T20:03:56.556Z,19.20
2022-10-18T20:06:23.806Z,19.20
2022-10-18T20:08:51.367Z,19.20
2022-10-18T20:11:20.671Z,19.20
2022-10-18T20:13:48.116Z,19.20
2022-10-18T20:16:16.649Z,19.20
2022-10-18T20:18:43.843Z,19.20
2022-10-18T20:21:15.826Z,19.30
2022-10-18T20:23:44.169Z,19.50
2022-10-18T20:26:20.540Z,19.60
2022-10-18T20:28:55.782Z,19.60
2022-10-18T20:31:25.927Z,19.60
2022-10-18T20:34:02.001Z,19.60
2022-10-18T20:36:31.218Z,19.70
2022-10-18T20:38:58.705Z,19.70
2022-10-18T20:41:31.479Z,19.70
2022-10-18T20:44:03.723Z,19.70
2022-10-18T20:46:32.738Z,19.80
2022-10-18T20:49:00.059Z,19.80
2022-10-18T20:51:27.954Z,19.80
2022-10-18T20:53:55.311Z,19.80
2022-10-18T20:56:26.642Z,19.80
2022-10-18T20:58:57.524Z,19.90
2022-10-18T21:01:28.155Z,19.80
2022-10-18T21:03:58.273Z,19.90
2022-10-18T21:06:30.466Z,19.90
2022-10-18T21:08:59.566Z,19.90
2022-10-18T21:11:27.679Z,19.80
2022-10-18T21:13:58.861Z,19.80
2022-10-18T21:16:27.114Z,19.80
2022-10-18T21:18:54.842Z,19.80
2022-10-18T21:21:24.188Z,19.80
2022-10-18T21:23:52.207Z,19.80
2022-10-18T21:26:22.152Z,19.70
2022-10-18T21:28:57.812Z,19.70
2022-10-18T21:31:30.131Z,19.80
2022-10-18T21:33:59.655Z,19.70
2022-10-18T21:36:30.237Z,19.70
2022-10-18T21:38:57.210Z,19.70
2022-10-18T21:41:24.762Z,19.70
2022-10-18T21:43:54.359Z,19.70
2022-10-18T21:46:23.285Z,19.70
2022-10-18T21:48:54.766Z,19.70
2022-10-18T21:51:24.196Z,19.60
2022-10-18T21:53:53.887Z,19.60
2022-10-18T21:56:32.705Z,19.60
2022-10-18T21:59:00.126Z,19.60
2022-10-18T22:01:35.012Z,19.60
2022-10-18T22:04:04.557Z,19.60
2022-10-18T22:09:08.275Z,19.60
2022-10-18T22:11:38.778Z,19.60
2022-10-18T22:14:05.918Z,19.60
2022-10-18T22:16:32.908Z,19.60
2022-10-18T22:19:01.865Z,19.50
2022-10-18T22:21:29.386Z,19.60
2022-10-18T22:23:57.918Z,19.60
2022-10-18T22:26:34.539Z,19.60
2022-10-18T22:29:04.567Z,19.60
2022-10-18T22:31:34.505Z,19.60
2022-10-18T22:34:04.388Z,19.60
2022-10-18T22:36:31.775Z,19.60
2022-10-18T22:38:59.709Z,19.60
2022-10-18T22:41:27.024Z,19.60
2022-10-18T22:43:55.516Z,19.60
2022-10-18T22:46:24.390Z,19.60
2022-10-18T22:48:51.407Z,19.60
2022-10-18T22:51:18.533Z,19.60
2022-10-18T22:53:45.831Z,19.60
2022-10-18T22:56:18.592Z,19.60
2022-10-18T22:58:45.741Z,19.60
2022-10-18T23:01:14.831Z,19.50
2022-10-18T23:03:42.382Z,19.50
2022-10-18T23:06:25.353Z,19.50
2022-10-18T23:08:53.709Z,19.50
2022-10-18T23:11:21.279Z,19.40
2022-10-18T23:13:48.270Z,19.40
2022-10-18T23:16:15.505Z,19.40
2022-10-18T23:18:42.473Z,19.40
2022-10-18T23:21:13.644Z,19.40
2022-10-18T23:23:42.058Z,19.40
2022-10-18T23:26:11.333Z,19.50
2022-10-18T23:28:41.477Z,19.40
2022-10-18T23:31:10.773Z,19.40
2022-10-18T23:33:38.561Z,19.30
2022-10-18T23:36:07.004Z,19.40
2022-10-18T23:38:35.316Z,19.40
2022-10-18T23:41:02.214Z,19.40
2022-10-18T23:43:29.052Z,19.40
2022-10-18T23:45:55.975Z,19.40
2022-10-18T23:48:22.932Z,19.40
2022-10-18T23:50:49.947Z,19.40
2022-10-18T23:53:16.875Z,19.40
2022-10-18T23:55:54.232Z,19.40
2022-10-18T23:58:21.587Z,19.40
